createdAt,value
2023-04-14T00:01:53.555Z,7.23
2023-04-14T00:04:21.146Z,6.77
2023-04-14T00:06:49.181Z,7.37
2023-04-14T00:09:16.340Z,7.07
2023-04-14T00:11:43.385Z,6.23
2023-04-14T00:14:10.478Z,7.90
2023-04-14T00:16:39.434Z,7.50
2023-04-14T00:19:06.678Z,6.17
2023-04-14T00:21:34.294Z,8.07
2023-04-14T00:24:01.381Z,7.83
2023-04-14T00:26:28.471Z,7.50
2023-04-14T00:28:55.762Z,8.27
2023-04-14T00:31:22.890Z,7.33
2023-04-14T00:33:49.978Z,7.30
2023-04-14T00:36:19.048Z,8.30
2023-04-14T00:38:46.354Z,8.27
2023-04-14T00:41:13.646Z,8.17
2023-04-14T00:43:40.722Z,8.03
2023-04-14T00:46:07.920Z,7.43
2023-04-14T00:48:35.401Z,7.50
2023-04-14T00:51:02.726Z,8.50
2023-04-14T00:53:29.844Z,7.40
2023-04-14T00:55:57.320Z,7.77
2023-04-14T00:58:24.489Z,7.67
2023-04-14T01:00:55.332Z,8.03
2023-04-14T01:03:24.989Z,8.60
2023-04-14T01:05:52.274Z,8.77
2023-04-14T01:08:19.809Z,8.67
2023-04-14T01:11:06.107Z,8.60
2023-04-14T01:13:41.148Z,9.00
2023-04-14T01:16:15.710Z,9.37
2023-04-14T01:18:51.903Z,8.80
2023-04-14T01:21:21.850Z,8.43
2023-04-14T01:24:03.717Z,7.63
2023-04-14T01:26:31.740Z,8.23
2023-04-14T01:29:31.207Z,7.70
2023-04-14T01:32:03.140Z,8.43
2023-04-14T01:34:34.322Z,9.10
2023-04-14T01:37:09.228Z,8.67
2023-04-14T01:39:38.670Z,8.27
2023-04-14T01:42:08.034Z,8.63
2023-04-14T01:44:35.900Z,8.93
2023-04-14T01:47:05.176Z,8.57
2023-04-14T01:49:33.816Z,8.97
2023-04-14T01:52:02.144Z,7.73
2023-04-14T01:54:30.222Z,8.10
2023-04-14T01:56:57.768Z,8.90
2023-04-14T01:59:25.321Z,8.87
2023-04-14T02:01:53.194Z,8.57
2023-04-14T02:04:24.080Z,8.13
2023-04-14T02:06:52.513Z,8.20
2023-04-14T02:09:20.885Z,8.93
2023-04-14T02:11:49.316Z,8.93
2023-04-14T02:14:23.099Z,8.43
2023-04-14T02:16:51.621Z,8.30
2023-04-14T02:19:22.384Z,8.13
2023-04-14T02:21:50.644Z,8.43
2023-04-14T02:24:17.988Z,8.70
2023-04-14T02:26:48.467Z,8.43
2023-04-14T02:29:16.705Z,8.47
2023-04-14T02:31:46.453Z,8.57
2023-04-14T02:34:15.386Z,8.83
2023-04-14T02:36:47.556Z,8.03
2023-04-14T02:39:18.188Z,8.07
2023-04-14T02:41:51.037Z,7.97
2023-04-14T02:44:26.067Z,8.73
2023-04-14T02:47:06.825Z,7.43
2023-04-14T02:49:36.093Z,8.70
2023-04-14T02:52:07.466Z,7.57
2023-04-14T02:54:35.911Z,7.53
2023-04-14T02:57:03.683Z,8.03
2023-04-14T02:59:32.275Z,7.60
2023-04-14T03:02:02.532Z,8.10
2023-04-14T03:04:31.195Z,7.87
2023-04-14T03:06:59.427Z,8.60
2023-04-14T03:09:27.237Z,7.87
2023-04-14T03:11:58.044Z,7.80
2023-04-14T03:14:25.523Z,7.87
2023-04-14T03:16:54.083Z,8.53
2023-04-14T03:19:24.600Z,8.03
2023-04-14T03:21:51.788Z,7.30
2023-04-14T03:24:28.442Z,7.07
2023-04-14T03:27:00.046Z,8.17
2023-04-14T03:29:27.971Z,8.10
2023-04-14T03:31:56.953Z,7.97
2023-04-14T03:34:25.655Z,7.60
2023-04-14T03:36:54.595Z,7.33
2023-04-14T03:39:22.292Z,8.20
2023-04-14T03:41:51.688Z,7.87
2023-04-14T03:44:19.372Z,7.87
2023-04-14T03:46:47.314Z,6.93
2023-04-14T03:49:16.793Z,7.13
2023-04-14T03:51:48.223Z,7.30
2023-04-14T03:54:15.841Z,7.60
2023-04-14T03:56:45.257Z,6.40
2023-04-14T03:59:14.229Z,7.53
2023-04-14T04:01:42.024Z,6.93
2023-04-14T04:04:10.168Z,8.27
2023-04-14T04:06:37.307Z,7.63
2023-04-14T04:09:06.126Z,7.33
2023-04-14T04:11:34.916Z,8.40
2023-04-14T04:14:03.982Z,8.30
2023-04-14T04:16:31.591Z,7.60
2023-04-14T04:18:59.813Z,7.33
2023-04-14T04:21:27.341Z,7.67
2023-04-14T04:23:56.183Z,7.63
2023-04-14T04:26:25.190Z,7.47
2023-04-14T04:28:52.551Z,8.00
2023-04-14T04:31:19.787Z,7.03
2023-04-14T04:33:46.936Z,8.07
2023-04-14T04:36:14.399Z,7.47
2023-04-14T04:38:44.038Z,7.30
2023-04-14T04:41:23.862Z,7.67
2023-04-14T04:43:50.926Z,7.47
2023-04-14T04:46:41.550Z,7.50
2023-04-14T04:49:08.614Z,7.27
2023-04-14T04:51:35.743Z,7.23
2023-04-14T04:54:02.794Z,7.60
2023-04-14T04:56:29.905Z,7.73
2023-04-14T04:58:56.950Z,7.57
2023-04-14T05:01:24.091Z,7.83
2023-04-14T05:03:51.280Z,7.77
2023-04-14T05:06:21.258Z,8.00
2023-04-14T05:08:48.333Z,7.23
2023-04-14T05:11:15.457Z,9.47
2023-04-14T05:13:42.715Z,9.40
2023-04-14T05:16:10.916Z,8.43
2023-04-14T05:18:38.016Z,8.20
2023-04-14T05:21:05.896Z,7.13
2023-04-14T05:23:33.825Z,7.27
2023-04-14T05:26:16.335Z,7.60
2023-04-14T05:28:48.298Z,7.27
2023-04-14T05:31:15.526Z,6.73
2023-04-14T05:33:42.634Z,7.37
2023-04-14T05:36:09.730Z,7.20
2023-04-14T05:38:42.943Z,8.10
2023-04-14T05:41:10.090Z,7.53
2023-04-14T05:43:37.365Z,9.23
2023-04-14T05:46:04.770Z,7.73
2023-04-14T05:48:33.257Z,8.80
2023-04-14T05:51:00.873Z,8.20
2023-04-14T05:53:28.043Z,6.73
2023-04-14T05:55:57.081Z,6.23
2023-04-14T05:58:26.399Z,5.63
2023-04-14T06:00:53.663Z,6.10
2023-04-14T06:03:21.013Z,6.53
2023-04-14T06:05:48.477Z,5.77
2023-04-14T06:08:15.676Z,5.83
2023-04-14T06:10:42.924Z,5.60
2023-04-14T06:13:11.031Z,5.47
2023-04-14T06:15:38.137Z,5.27
2023-04-14T06:18:05.313Z,5.30
2023-04-14T06:20:32.849Z,5.03
2023-04-14T06:23:00.984Z,6.07
2023-04-14T06:25:28.135Z,5.30
2023-04-14T06:27:55.275Z,5.33
2023-04-14T06:30:22.482Z,5.83
2023-04-14T06:32:54.081Z,5.33
2023-04-14T06:35:32.293Z,5.60
2023-04-14T06:38:00.714Z,5.80
2023-04-14T06:40:27.771Z,5.30
2023-04-14T06:42:54.905Z,5.13
2023-04-14T06:45:22.079Z,5.10
2023-04-14T06:47:49.139Z,4.23
2023-04-14T06:50:16.448Z,4.57
2023-04-14T06:52:43.495Z,5.30
2023-04-14T06:55:10.711Z,5.00
2023-04-14T06:57:37.786Z,5.27
2023-04-14T07:00:07.097Z,4.83
2023-04-14T07:02:34.219Z,4.77
2023-04-14T07:05:01.450Z,4.53
2023-04-14T07:07:28.595Z,5.27
2023-04-14T07:09:55.701Z,4.67
2023-04-14T07:12:22.995Z,5.03
2023-04-14T07:14:53.181Z,4.93
2023-04-14T07:17:20.851Z,5.63
2023-04-14T07:19:47.941Z,5.13
2023-04-14T07:22:14.993Z,5.07
2023-04-14T07:24:42.120Z,4.77
2023-04-14T07:27:15.281Z,5.63
2023-04-14T07:29:42.860Z,5.10
2023-04-14T07:32:09.973Z,5.87
2023-04-14T07:34:37.106Z,5.70
2023-04-14T07:37:04.267Z,4.73
2023-04-14T07:39:31.377Z,5.07
2023-04-14T07:41:58.974Z,5.50
2023-04-14T07:44:26.498Z,4.90
2023-04-14T07:46:53.706Z,5.20
2023-04-14T07:49:20.854Z,4.60
2023-04-14T07:51:48.007Z,5.53
2023-04-14T07:54:15.980Z,4.70
2023-04-14T07:56:43.135Z,4.50
2023-04-14T07:59:10.343Z,5.13
2023-04-14T08:01:37.757Z,4.30
2023-04-14T08:04:05.009Z,5.60
2023-04-14T08:06:32.828Z,4.90
2023-04-14T08:09:00.167Z,5.53
2023-04-14T08:11:27.782Z,3.93
2023-04-14T08:13:54.870Z,4.50
2023-04-14T08:16:22.626Z,4.30
2023-04-14T08:18:50.164Z,4.10
2023-04-14T08:21:17.668Z,4.00
2023-04-14T08:23:44.818Z,4.50
2023-04-14T08:26:11.844Z,4.33
2023-04-14T08:28:38.882Z,4.87
2023-04-14T08:31:06.433Z,5.10
2023-04-14T08:33:33.933Z,4.60
2023-04-14T08:36:01.132Z,4.63
2023-04-14T08:38:29.185Z,5.20
2023-04-14T08:40:57.019Z,4.90
2023-04-14T08:43:24.207Z,4.83
2023-04-14T08:45:51.834Z,4.20
2023-04-14T08:48:21.651Z,4.87
2023-04-14T08:51:04.742Z,4.23
2023-04-14T08:53:33.198Z,4.20
2023-04-14T08:56:04.320Z,4.70
2023-04-14T08:58:32.278Z,4.53
2023-04-14T09:00:59.870Z,4.37
2023-04-14T09:03:27.645Z,4.63
2023-04-14T09:05:55.045Z,4.70
2023-04-14T09:08:22.206Z,3.73
2023-04-14T09:10:49.469Z,3.80
2023-04-14T09:13:17.159Z,4.10
2023-04-14T09:15:44.394Z,3.87
2023-04-14T09:18:11.970Z,4.40
2023-04-14T09:20:40.751Z,4.30
2023-04-14T09:23:12.130Z,4.43
2023-04-14T09:25:39.901Z,3.67
2023-04-14T09:28:07.025Z,3.77
2023-04-14T09:30:34.299Z,3.60
2023-04-14T09:35:54.225Z,3.77
2023-04-14T09:38:40.125Z,3.97
2023-04-14T09:41:07.249Z,4.20
2023-04-14T09:43:34.350Z,3.97
2023-04-14T09:46:05.618Z,3.63
2023-04-14T09:48:32.888Z,3.97
2023-04-14T09:51:06.648Z,4.33
2023-04-14T09:53:34.683Z,4.33
2023-04-14T09:56:04.774Z,3.73
2023-04-14T09:58:32.618Z,4.27
2023-04-14T10:00:59.756Z,4.37
2023-04-14T10:03:34.397Z,4.37
2023-04-14T10:06:02.508Z,4.47
2023-04-14T10:08:37.115Z,3.83
2023-04-14T10:11:21.078Z,4.00
2023-04-14T10:13:48.936Z,3.63
2023-04-14T10:16:16.299Z,3.23
2023-04-14T10:18:44.593Z,3.77
2023-04-14T10:21:11.981Z,3.80
2023-04-14T10:23:41.247Z,4.03
2023-04-14T10:26:09.007Z,3.23
2023-04-14T10:28:40.903Z,3.63
2023-04-14T10:31:09.725Z,3.43
2023-04-14T10:33:40.323Z,3.33
2023-04-14T10:36:08.139Z,3.30
2023-04-14T10:38:45.683Z,3.70
2023-04-14T10:41:13.590Z,3.70
2023-04-14T10:43:41.652Z,3.50
2023-04-14T10:46:09.831Z,3.60
2023-04-14T10:48:41.121Z,3.30
2023-04-14T10:51:09.605Z,3.40
2023-04-14T10:53:44.890Z,3.57
2023-04-14T10:56:12.021Z,3.57
2023-04-14T10:58:39.130Z,3.20
2023-04-14T11:01:23.013Z,3.50
2023-04-14T11:03:50.565Z,3.93
2023-04-14T11:06:36.730Z,3.70
2023-04-14T11:09:22.198Z,3.60
2023-04-14T11:11:49.308Z,3.77
2023-04-14T11:14:16.549Z,3.47
2023-04-14T11:16:58.782Z,2.87
2023-04-14T11:19:30.834Z,4.30
2023-04-14T11:21:57.961Z,3.40
2023-04-14T11:24:26.446Z,3.97
2023-04-14T11:26:54.710Z,3.13
2023-04-14T11:29:23.114Z,3.83
2023-04-14T11:32:06.428Z,3.80
2023-04-14T11:34:34.430Z,3.97
2023-04-14T11:37:04.498Z,4.23
2023-04-14T11:39:31.731Z,4.03
2023-04-14T11:42:01.741Z,3.93
2023-04-14T11:44:28.850Z,3.73
2023-04-14T11:46:55.996Z,3.50
2023-04-14T11:49:33.339Z,3.10
2023-04-14T11:52:04.973Z,4.00
2023-04-14T11:54:35.934Z,4.23
2023-04-14T11:57:03.049Z,4.00
2023-04-14T11:59:30.129Z,3.97
2023-04-14T12:01:58.464Z,3.70
2023-04-14T12:04:25.660Z,3.57
2023-04-14T12:06:53.704Z,3.37
2023-04-14T12:09:22.227Z,4.43
2023-04-14T12:11:55.662Z,3.53
2023-04-14T12:14:22.926Z,3.77
2023-04-14T12:16:50.394Z,4.03
2023-04-14T12:19:17.433Z,4.13
2023-04-14T12:21:53.191Z,4.00
2023-04-14T12:24:20.501Z,4.90
2023-04-14T12:26:47.657Z,3.27
2023-04-14T12:29:14.818Z,4.00
2023-04-14T12:31:44.862Z,3.67
2023-04-14T12:34:14.900Z,3.53
2023-04-14T12:37:48.363Z,4.00
2023-04-14T12:39:29.743Z,3.50
2023-04-14T12:41:59.191Z,2.70
2023-04-14T12:44:26.306Z,3.93
2023-04-14T12:46:54.635Z,3.93
2023-04-14T12:49:36.285Z,2.93
2023-04-14T12:52:08.097Z,2.67
2023-04-14T12:54:54.266Z,3.17
2023-04-14T12:57:22.538Z,3.00
2023-04-14T12:59:50.380Z,2.67
2023-04-14T13:02:17.801Z,2.50
2023-04-14T13:04:45.355Z,2.70
2023-04-14T13:07:12.395Z,2.90
2023-04-14T13:09:39.497Z,2.87
2023-04-14T13:12:06.631Z,2.73
2023-04-14T13:14:33.686Z,2.63
2023-04-14T13:17:01.442Z,1.97
2023-04-14T13:19:28.497Z,2.63
2023-04-14T13:21:55.541Z,2.57
2023-04-14T13:24:22.602Z,2.63
2023-04-14T13:26:50.279Z,2.20
2023-04-14T13:29:17.313Z,2.83
2023-04-14T13:31:44.385Z,2.30
2023-04-14T13:34:11.816Z,2.27
2023-04-14T13:36:39.037Z,2.57
2023-04-14T13:39:06.262Z,2.23
2023-04-14T13:41:33.299Z,2.60
2023-04-14T13:44:00.360Z,2.93
2023-04-14T13:46:27.642Z,2.63
2023-04-14T13:48:54.767Z,2.30
2023-04-14T13:51:23.273Z,2.30
2023-04-14T13:53:50.491Z,2.40
2023-04-14T13:56:22.575Z,3.27
2023-04-14T13:58:49.647Z,2.70
2023-04-14T14:01:16.783Z,2.50
2023-04-14T14:03:44.229Z,2.53
2023-04-14T14:06:11.461Z,2.30
2023-04-14T14:08:38.656Z,2.77
2023-04-14T14:11:06.302Z,2.43
2023-04-14T14:13:33.739Z,2.47
2023-04-14T14:16:01.392Z,2.47
2023-04-14T14:18:28.515Z,2.90
2023-04-14T14:20:55.637Z,2.63
2023-04-14T14:23:22.682Z,3.70
2023-04-14T14:25:49.752Z,2.60
2023-04-14T14:28:17.153Z,2.27
2023-04-14T14:30:44.231Z,2.40
2023-04-14T14:33:11.333Z,2.20
2023-04-14T14:35:38.635Z,2.33
2023-04-14T14:38:05.866Z,2.60
2023-04-14T14:40:32.922Z,2.67
2023-04-14T14:43:00.217Z,3.00
2023-04-14T14:45:31.127Z,2.67
2023-04-14T14:48:00.527Z,2.53
2023-04-14T14:50:27.663Z,3.17
2023-04-14T14:52:56.670Z,2.83
2023-04-14T14:55:23.720Z,2.73
2023-04-14T14:57:51.223Z,2.83
2023-04-14T15:00:19.099Z,3.10
2023-04-14T15:02:46.633Z,4.00
2023-04-14T15:05:13.825Z,2.80
2023-04-14T15:07:40.852Z,2.60
2023-04-14T15:10:08.137Z,2.27
2023-04-14T15:12:35.519Z,2.43
2023-04-14T15:15:02.625Z,2.80
2023-04-14T15:17:29.732Z,2.60
2023-04-14T15:19:56.824Z,3.10
2023-04-14T15:22:23.952Z,2.37
2023-04-14T15:24:51.005Z,2.60
2023-04-14T15:27:18.120Z,3.50
2023-04-14T15:29:45.259Z,3.17
2023-04-14T15:32:12.404Z,2.50
2023-04-14T15:34:39.571Z,2.77
2023-04-14T15:37:06.808Z,2.80
2023-04-14T15:39:33.877Z,3.73
2023-04-14T15:42:01.272Z,2.73
2023-04-14T15:44:28.334Z,3.23
2023-04-14T15:46:55.541Z,2.87
2023-04-14T15:49:23.106Z,2.80
2023-04-14T15:51:50.642Z,2.97
2023-04-14T15:54:17.765Z,3.43
2023-04-14T15:56:44.840Z,2.90
2023-04-14T15:59:11.884Z,3.13
2023-04-14T16:01:39.035Z,3.00
2023-04-14T16:04:06.471Z,2.97
2023-04-14T16:06:34.028Z,3.03
2023-04-14T16:09:01.433Z,3.07
2023-04-14T16:11:29.952Z,2.53
2023-04-14T16:13:57.439Z,3.00
2023-04-14T16:16:25.032Z,2.53
2023-04-14T16:18:52.748Z,2.90
2023-04-14T16:21:19.765Z,3.77
2023-04-14T16:23:46.906Z,2.83
2023-04-14T16:26:13.948Z,3.17
2023-04-14T16:28:41.190Z,3.13
2023-04-14T16:31:08.357Z,3.10
2023-04-14T16:33:35.438Z,3.00
2023-04-14T16:36:02.976Z,3.47
2023-04-14T16:38:30.355Z,3.13
2023-04-14T16:40:58.207Z,2.93
2023-04-14T16:43:27.312Z,3.77
2023-04-14T16:45:54.966Z,3.83
2023-04-14T16:48:22.141Z,3.53
2023-04-14T16:50:49.197Z,4.10
2023-04-14T16:53:16.674Z,3.63
2023-04-14T16:55:43.748Z,3.70
2023-04-14T16:58:10.785Z,3.13
2023-04-14T17:00:37.865Z,3.37
2023-04-14T17:03:06.826Z,2.83
2023-04-14T17:05:34.224Z,3.23
2023-04-14T17:08:01.459Z,2.90
2023-04-14T17:10:29.738Z,3.80
2023-04-14T17:12:56.880Z,3.30
2023-04-14T17:15:23.946Z,3.00
2023-04-14T17:17:50.985Z,2.90
2023-04-14T17:20:18.131Z,2.70
2023-04-14T17:22:45.268Z,2.93
2023-04-14T17:25:13.182Z,2.90
2023-04-14T17:27:40.207Z,2.70
2023-04-14T17:30:10.036Z,3.03
2023-04-14T17:32:37.965Z,2.83
2023-04-14T17:35:05.370Z,3.03
2023-04-14T17:37:32.598Z,3.07
2023-04-14T17:40:00.008Z,3.37
2023-04-14T17:42:27.667Z,3.50
2023-04-14T17:44:54.885Z,3.03
2023-04-14T17:47:22.777Z,3.20
2023-04-14T17:49:50.173Z,3.97
2023-04-14T17:52:19.128Z,3.97
2023-04-14T17:54:46.659Z,3.73
2023-04-14T17:57:14.075Z,6.17
2023-04-14T17:59:41.716Z,4.40
2023-04-14T18:02:09.547Z,3.60
2023-04-14T18:04:37.355Z,3.23
2023-04-14T18:07:04.555Z,4.27
2023-04-14T18:09:31.625Z,3.57
2023-04-14T18:11:59.015Z,4.47
2023-04-14T18:14:26.502Z,3.50
2023-04-14T18:16:54.556Z,4.37
2023-04-14T18:19:23.070Z,4.37
2023-04-14T18:21:50.178Z,3.33
2023-04-14T18:26:47.231Z,4.13
2023-04-14T18:29:14.272Z,3.80
2023-04-14T18:31:42.496Z,3.37
2023-04-14T18:34:10.681Z,3.90
2023-04-14T18:36:38.630Z,3.80
2023-04-14T18:39:07.004Z,3.70
2023-04-14T18:41:34.230Z,4.10
2023-04-14T18:44:01.449Z,3.73
2023-04-14T18:46:28.683Z,3.90
2023-04-14T18:48:55.762Z,3.97
2023-04-14T18:51:22.783Z,3.20
2023-04-14T18:53:50.864Z,4.90
2023-04-14T18:56:17.978Z,3.80
2023-04-14T18:58:46.103Z,3.93
2023-04-14T19:01:13.512Z,3.73
2023-04-14T19:03:40.625Z,4.23
2023-04-14T19:06:08.603Z,3.80
2023-04-14T19:08:35.979Z,4.20
2023-04-14T19:11:03.383Z,3.60
2023-04-14T19:13:30.456Z,3.13
2023-04-14T19:16:05.903Z,3.30
2023-04-14T19:18:33.038Z,2.97
2023-04-14T19:21:00.060Z,3.33
2023-04-14T19:23:27.152Z,3.30
2023-04-14T19:25:55.253Z,3.43
2023-04-14T19:28:22.642Z,2.70
2023-04-14T19:30:49.714Z,2.70
2023-04-14T19:33:16.849Z,3.00
2023-04-14T19:35:44.754Z,3.40
2023-04-14T19:38:12.146Z,3.10
2023-04-14T19:40:39.654Z,2.77
2023-04-14T19:43:06.937Z,3.13
2023-04-14T19:45:34.154Z,3.67
2023-04-14T19:48:09.920Z,2.97
2023-04-14T19:50:51.727Z,3.67
2023-04-14T19:53:19.962Z,3.20
2023-04-14T19:55:50.989Z,3.20
2023-04-14T19:58:21.300Z,5.03
2023-04-14T20:00:50.928Z,4.17
2023-04-14T20:03:19.084Z,4.70
2023-04-14T20:05:46.977Z,3.60
2023-04-14T20:08:15.103Z,2.93
2023-04-14T20:10:42.468Z,3.40
2023-04-14T20:13:09.866Z,3.53
2023-04-14T20:15:40.183Z,3.20
2023-04-14T20:18:07.928Z,3.17
2023-04-14T20:20:35.030Z,4.77
2023-04-14T20:23:02.130Z,3.90
2023-04-14T20:25:30.240Z,4.70
2023-04-14T20:27:58.088Z,7.07
2023-04-14T20:30:25.693Z,6.30
2023-04-14T20:32:53.052Z,5.07
2023-04-14T20:35:20.340Z,4.37
2023-04-14T20:37:47.465Z,3.70
2023-04-14T20:40:16.005Z,3.87
2023-04-14T20:42:43.479Z,4.50
2023-04-14T20:45:10.754Z,4.27
2023-04-14T20:47:38.033Z,5.13
2023-04-14T20:50:05.361Z,4.70
2023-04-14T20:52:34.408Z,5.00
2023-04-14T20:55:03.461Z,4.93
2023-04-14T20:57:30.632Z,5.30
2023-04-14T20:59:57.688Z,4.73
2023-04-14T21:02:25.025Z,6.10
2023-04-14T21:04:52.231Z,4.97
2023-04-14T21:07:19.428Z,4.90
2023-04-14T21:09:46.560Z,4.80
2023-04-14T21:12:14.838Z,4.20
2023-04-14T21:15:28.493Z,4.70
2023-04-14T21:17:30.617Z,7.07
2023-04-14T21:19:57.803Z,7.77
2023-04-14T21:22:24.867Z,4.73
2023-04-14T21:24:51.952Z,4.77
2023-04-14T21:27:19.190Z,6.00
2023-04-14T21:29:46.282Z,5.20
2023-04-14T21:32:14.055Z,5.03
2023-04-14T21:34:41.514Z,5.50
2023-04-14T21:37:08.614Z,5.43
2023-04-14T21:39:36.211Z,6.80
2023-04-14T21:42:03.545Z,6.27
2023-04-14T21:44:30.805Z,6.33
2023-04-14T21:46:57.863Z,7.73
2023-04-14T21:49:24.939Z,7.73
2023-04-14T21:51:52.466Z,7.83
2023-04-14T21:54:19.853Z,7.47
2023-04-14T21:56:47.119Z,6.83
2023-04-14T21:59:14.178Z,7.40
2023-04-14T22:01:42.717Z,6.67
2023-04-14T22:04:11.463Z,7.43
2023-04-14T22:06:41.730Z,6.83
2023-04-14T22:09:08.784Z,6.30
2023-04-14T22:11:35.869Z,7.67
2023-04-14T22:14:03.167Z,7.77
2023-04-14T22:16:30.414Z,7.03
2023-04-14T22:18:57.557Z,6.70
2023-04-14T22:21:24.797Z,6.63
2023-04-14T22:23:52.575Z,7.07
2023-04-14T22:26:19.680Z,7.63
2023-04-14T22:28:46.786Z,7.50
2023-04-14T22:31:14.237Z,9.40
2023-04-14T22:33:41.421Z,7.80
2023-04-14T22:36:09.513Z,7.40
2023-04-14T22:38:36.612Z,7.37
2023-04-14T22:41:03.821Z,7.00
2023-04-14T22:43:30.939Z,6.80
2023-04-14T22:45:58.023Z,6.43
2023-04-14T22:48:25.513Z,7.10
2023-04-14T22:50:52.572Z,8.57
2023-04-14T22:53:19.915Z,8.10
2023-04-14T22:55:47.008Z,7.07
2023-04-14T22:58:18.722Z,6.33
2023-04-14T23:00:46.106Z,6.93
2023-04-14T23:03:13.241Z,6.30
2023-04-14T23:05:40.630Z,6.63
2023-04-14T23:08:08.403Z,7.57
2023-04-14T23:10:35.455Z,5.80
2023-04-14T23:13:02.706Z,6.77
2023-04-14T23:15:29.886Z,6.47
2023-04-14T23:17:56.960Z,6.23
2023-04-14T23:20:25.064Z,6.10
2023-04-14T23:22:52.096Z,6.70
2023-04-14T23:25:19.113Z,6.97
2023-04-14T23:27:46.381Z,7.00
2023-04-14T23:30:13.445Z,7.47
2023-04-14T23:32:40.704Z,7.20
2023-04-14T23:35:08.474Z,7.63
2023-04-14T23:37:35.596Z,7.50
2023-04-14T23:40:06.022Z,8.70
2023-04-14T23:42:33.573Z,7.27
2023-04-14T23:45:01.308Z,7.63
2023-04-14T23:47:28.701Z,7.30
2023-04-14T23:49:56.419Z,8.00
2023-04-14T23:52:23.598Z,7.83
2023-04-14T23:54:51.571Z,8.40
2023-04-14T23:57:18.884Z,6.97
2023-04-14T23:59:46.414Z,7.60
